Time;durP1;ratioP1;P1;durP2;ratioP2;P2;SDS_P1;SDS_P2;PMS_P1;PMS_P2;Temp;Humidity;BMP_temperature;BMP_pressure;BME280_temperature;BME280_humidity;BME280_pressure;Samples;Min_cycle;Max_cycle;Signal;HPM_P1;HPM_P2
2023/08/22 00:02:11;;;;;;;0.20;0.20;;;;;;;16.35;56.02;99426.09;5027318;28;20103;-74
2023/08/22 00:04:39;;;;;;;0.20;0.20;;;;;;;16.36;55.94;99430.47;5021718;28;20049;-75
2023/08/22 00:07:05;;;;;;;0.20;0.20;;;;;;;16.36;55.79;99443.44;5057100;28;20057;-75
2023/08/22 00:09:32;;;;;;;0.20;0.20;;;;;;;16.32;55.36;99426.75;5011580;28;20049;-74
2023/08/22 00:11:59;;;;;;;0.20;0.20;;;;;;;16.34;55.15;99426.41;5041841;28;20056;-77
2023/08/22 00:14:26;;;;;;;0.13;0.13;;;;;;;16.33;54.80;99433.88;5046156;28;20056;-74
2023/08/22 00:16:52;;;;;;;0.20;0.20;;;;;;;16.30;56.22;99428.97;5046408;28;20053;-74
2023/08/22 00:19:19;;;;;;;0.20;0.20;;;;;;;16.24;55.41;99422.00;5043856;28;20052;-75
2023/08/22 00:21:45;;;;;;;0.20;0.20;;;;;;;16.18;55.99;99420.56;5045490;28;20063;-78
2023/08/22 00:24:11;;;;;;;0.20;0.20;;;;;;;16.11;56.34;99410.78;5046018;28;20082;-77
2023/08/22 00:26:38;;;;;;;0.20;0.20;;;;;;;16.07;56.54;99412.56;5046272;28;20418;-77
2023/08/22 00:29:06;;;;;;;0.20;0.20;;;;;;;15.99;56.01;99411.41;5045971;28;20123;-76
2023/08/22 00:31:32;;;;;;;0.20;0.20;;;;;;;15.97;56.19;99415.63;5044364;28;20052;-77
2023/08/22 00:34:01;;;;;;;0.20;0.20;;;;;;;15.95;56.11;99407.69;5046658;28;20044;-76
2023/08/22 00:36:27;;;;;;;0.20;0.20;;;;;;;16.01;56.06;99411.13;5028494;28;20045;-77
2023/08/22 00:38:53;;;;;;;0.20;0.20;;;;;;;16.06;55.17;99416.47;5045809;28;20045;-77
2023/08/22 00:41:20;;;;;;;0.20;0.20;;;;;;;16.11;55.89;99412.75;5045048;28;20057;-77
2023/08/22 00:43:46;;;;;;;0.20;0.20;;;;;;;16.15;56.52;99410.97;5036049;28;20068;-76
2023/08/22 00:46:14;;;;;;;0.20;0.20;;;;;;;16.13;57.17;99407.72;5025112;28;20057;-76
2023/08/22 00:48:42;;;;;;;0.20;0.20;;;;;;;16.14;57.64;99412.09;5011097;28;20044;-77
2023/08/22 00:51:08;;;;;;;0.20;0.20;;;;;;;16.12;57.91;99406.09;5035217;28;20552;-77
2023/08/22 00:53:35;;;;;;;0.20;0.20;;;;;;;16.11;57.88;99410.00;5019544;28;20697;-78
2023/08/22 00:56:01;;;;;;;0.20;0.20;;;;;;;16.09;58.20;99402.03;5015774;28;20049;-78
2023/08/22 00:58:27;;;;;;;0.15;0.15;;;;;;;16.07;58.49;99406.22;5027287;28;20046;-77
2023/08/22 01:00:54;;;;;;;0.20;0.20;;;;;;;16.02;59.28;99390.69;5027598;28;20499;-77
2023/08/22 01:03:22;;;;;;;0.20;0.20;;;;;;;15.97;60.11;99391.63;5044563;28;20528;-77
2023/08/22 01:05:53;;;;;;;0.20;0.20;;;;;;;15.96;60.84;99389.19;5010325;28;20045;-76
2023/08/22 01:08:25;;;;;;;0.20;0.20;;;;;;;15.91;61.67;99386.59;5024182;28;20076;-77
2023/08/22 01:10:55;;;;;;;0.20;0.20;;;;;;;15.83;62.41;99382.66;5023564;28;20045;-78
2023/08/22 01:13:26;;;;;;;0.20;0.20;;;;;;;15.77;63.11;99387.50;5007340;28;20045;-77
2023/08/22 01:15:54;;;;;;;0.20;0.20;;;;;;;15.75;63.29;99389.75;5040053;28;20044;-77
2023/08/22 01:18:22;;;;;;;0.20;0.20;;;;;;;15.73;63.81;99384.56;5045033;28;20040;-76
2023/08/22 01:20:48;;;;;;;0.20;0.20;;;;;;;15.75;63.80;99378.75;5043407;28;20045;-77
2023/08/22 01:23:16;;;;;;;0.20;0.20;;;;;;;15.78;64.50;99377.28;5028429;28;20072;-77
2023/08/22 01:25:43;;;;;;;0.20;0.20;;;;;;;15.78;64.64;99367.06;5023952;28;20061;-77
2023/08/22 01:28:12;;;;;;;0.20;0.20;;;;;;;15.78;64.96;99366.28;5024128;28;20049;-76
2023/08/22 01:30:47;;;;;;;0.20;0.20;;;;;;;15.73;65.00;99358.97;5025519;28;20056;-76
2023/08/22 01:33:20;;;;;;;0.20;0.20;;;;;;;15.73;65.27;99369.97;5006543;28;20381;-76
2023/08/22 01:35:51;;;;;;;0.20;0.20;;;;;;;15.69;65.19;99361.53;5040911;28;20163;-76
2023/08/22 01:38:21;;;;;;;0.20;0.20;;;;;;;15.65;64.27;99363.31;5044965;28;20061;-77
2023/08/22 01:40:47;;;;;;;0.20;0.20;;;;;;;15.64;63.79;99358.09;5046201;28;20049;-76
2023/08/22 01:43:13;;;;;;;0.20;0.20;;;;;;;15.62;63.98;99354.88;5045182;28;20102;-75
2023/08/22 01:45:40;;;;;;;0.20;0.20;;;;;;;15.58;63.77;99360.19;5044495;28;20606;-76
2023/08/22 01:48:06;;;;;;;0.20;0.20;;;;;;;15.57;63.66;99353.88;5032612;28;20052;-77
2023/08/22 01:50:32;;;;;;;0.20;0.20;;;;;;;15.55;63.46;99353.41;5044188;28;20087;-76
2023/08/22 01:52:59;;;;;;;0.20;0.20;;;;;;;15.51;63.39;99351.59;5043689;28;20112;-77
2023/08/22 01:55:26;;;;;;;0.20;0.20;;;;;;;15.48;63.38;99355.78;5024051;28;20056;-76
2023/08/22 01:57:53;;;;;;;0.20;0.20;;;;;;;15.45;63.66;99357.25;5031761;28;20057;-77
2023/08/22 02:00:19;;;;;;;0.22;0.22;;;;;;;15.42;63.92;99355.13;5015060;28;20419;-76
2023/08/22 02:02:45;;;;;;;0.20;0.20;;;;;;;15.38;63.87;99356.91;5038475;28;20772;-75
2023/08/22 02:05:11;;;;;;;0.22;0.20;;;;;;;15.37;63.83;99357.19;5020406;28;20045;-77
2023/08/22 02:07:38;;;;;;;0.10;0.10;;;;;;;15.33;63.74;99351.53;5025992;28;20128;-74
2023/08/22 02:10:07;;;;;;;0.20;0.20;;;;;;;15.26;63.99;99353.91;5023778;28;20049;-75
2023/08/22 02:12:35;;;;;;;0.10;0.10;;;;;;;15.26;63.97;99351.16;5029204;28;20045;-75
2023/08/22 02:15:02;;;;;;;0.20;0.20;;;;;;;15.24;64.25;99356.19;5029052;28;20049;-75
2023/08/22 02:17:31;;;;;;;0.10;0.10;;;;;;;15.21;64.43;99348.56;5027224;28;20044;-75
2023/08/22 02:19:58;;;;;;;0.20;0.20;;;;;;;15.17;64.96;99353.88;5036252;28;20510;-75
2023/08/22 02:22:24;;;;;;;0.10;0.10;;;;;;;15.15;65.62;99351.47;5022821;28;20235;-75
2023/08/22 02:24:50;;;;;;;0.10;0.10;;;;;;;15.11;65.65;99338.63;5023657;28;20636;-74
2023/08/22 02:27:17;;;;;;;0.10;0.10;;;;;;;15.09;66.24;99344.44;5007054;28;20061;-74
2023/08/22 02:29:45;;;;;;;0.20;0.20;;;;;;;15.04;67.00;99341.84;5003967;28;20050;-73
2023/08/22 02:32:11;;;;;;;0.10;0.10;;;;;;;15.00;67.19;99338.91;5023863;28;20123;-75
2023/08/22 02:34:40;;;;;;;0.17;0.17;;;;;;;14.97;67.32;99338.72;5022172;28;20057;-75
2023/08/22 02:37:07;;;;;;;0.10;0.10;;;;;;;14.98;67.56;99337.59;5025348;28;20268;-74
2023/08/22 02:39:33;;;;;;;0.10;0.10;;;;;;;14.99;67.38;99325.47;5023535;28;20080;-74
2023/08/22 02:41:59;;;;;;;0.13;0.13;;;;;;;15.01;68.04;99325.97;5023263;28;20110;-74
2023/08/22 02:44:26;;;;;;;0.17;0.17;;;;;;;15.03;67.56;99324.50;5023719;28;20484;-74
2023/08/22 02:46:54;;;;;;;0.10;0.10;;;;;;;15.05;67.86;99332.44;5010036;28;20521;-76
2023/08/22 02:49:20;;;;;;;0.20;0.20;;;;;;;15.07;67.68;99329.41;5026711;28;20120;-76
2023/08/22 02:51:46;;;;;;;0.20;0.20;;;;;;;15.12;67.81;99323.75;5006189;28;20509;-74
2023/08/22 02:54:12;;;;;;;0.10;0.10;;;;;;;15.14;67.26;99325.06;5024092;28;20611;-74
2023/08/22 02:56:38;;;;;;;0.20;0.20;;;;;;;15.23;67.27;99321.50;5037014;28;20056;-76
2023/08/22 02:59:05;;;;;;;0.10;0.10;;;;;;;15.24;67.24;99326.72;5025575;28;20050;-76
2023/08/22 03:01:31;;;;;;;0.20;0.20;;;;;;;15.26;66.93;99316.19;5027184;28;20157;-77
2023/08/22 03:03:59;;;;;;;0.20;0.20;;;;;;;15.35;66.78;99327.25;5012139;28;20053;-77
2023/08/22 03:06:26;;;;;;;0.10;0.10;;;;;;;15.42;66.55;99324.81;5015750;28;20045;-77
2023/08/22 03:08:52;;;;;;;0.17;0.17;;;;;;;15.45;66.46;99315.13;5046985;28;20236;-76
2023/08/22 03:11:19;;;;;;;0.20;0.20;;;;;;;15.46;66.48;99322.25;5025367;28;20463;-75
2023/08/22 03:13:45;;;;;;;0.20;0.20;;;;;;;15.50;66.51;99320.47;5027597;28;20042;-75
2023/08/22 03:16:12;;;;;;;0.10;0.10;;;;;;;15.52;66.31;99320.97;5025697;28;20053;-77
2023/08/22 03:18:43;;;;;;;0.20;0.20;;;;;;;15.53;66.32;99322.59;5026754;28;20038;-74
2023/08/22 03:21:10;;;;;;;0.20;0.20;;;;;;;15.53;66.18;99314.34;5027315;28;20056;-73
2023/08/22 03:23:37;;;;;;;0.20;0.20;;;;;;;15.53;66.35;99313.50;5008848;28;20619;-74
2023/08/22 03:26:04;;;;;;;0.20;0.20;;;;;;;15.52;66.55;99312.69;5009938;28;20053;-74
2023/08/22 03:28:33;;;;;;;0.17;0.17;;;;;;;15.54;66.66;99312.38;5025015;28;20347;-75
2023/08/22 03:31:05;;;;;;;0.17;0.17;;;;;;;15.55;66.72;99312.06;5024719;28;20056;-75
2023/08/22 03:33:33;;;;;;;0.20;0.20;;;;;;;15.54;66.82;99306.88;5024070;28;20040;-75
2023/08/22 03:36:03;;;;;;;0.20;0.20;;;;;;;15.51;67.07;99304.75;5021368;28;20088;-74
2023/08/22 03:38:31;;;;;;;0.20;0.20;;;;;;;15.49;67.09;99293.25;5007652;28;20095;-74
2023/08/22 03:40:57;;;;;;;0.20;0.20;;;;;;;15.44;67.39;99296.97;5048325;28;20052;-74
2023/08/22 03:43:24;;;;;;;0.20;0.20;;;;;;;15.39;67.32;99291.63;5026777;28;20119;-77
2023/08/22 03:45:50;;;;;;;0.20;0.20;;;;;;;15.40;67.96;99294.03;5012976;28;20060;-77
2023/08/22 03:48:16;;;;;;;0.20;0.20;;;;;;;15.48;67.44;99280.63;5025021;28;20147;-77
2023/08/22 03:50:43;;;;;;;0.20;0.20;;;;;;;15.50;67.81;99289.38;5009587;28;20111;-77
2023/08/22 03:53:11;;;;;;;0.20;0.20;;;;;;;15.52;67.63;99292.59;5009666;28;20580;-76
2023/08/22 03:55:40;;;;;;;0.28;0.28;;;;;;;15.59;67.69;99279.97;5009378;28;20051;-76
2023/08/22 03:58:07;;;;;;;0.20;0.20;;;;;;;15.70;67.47;99282.44;5026229;28;20513;-75
2023/08/22 04:00:33;;;;;;;0.20;0.20;;;;;;;15.74;67.32;99266.88;5023508;28;20574;-74
2023/08/22 04:03:00;;;;;;;0.20;0.20;;;;;;;15.85;67.08;99281.97;5005212;28;20045;-74
2023/08/22 04:05:28;;;;;;;0.20;0.20;;;;;;;15.94;66.83;99275.66;5024240;28;20061;-76
2023/08/22 04:07:54;;;;;;;0.20;0.20;;;;;;;15.98;66.32;99280.22;5009503;28;20111;-76
2023/08/22 04:10:21;;;;;;;0.20;0.20;;;;;;;15.94;66.44;99270.97;5026795;28;20068;-77
2023/08/22 04:12:49;;;;;;;0.20;0.20;;;;;;;16.01;66.32;99279.56;5026582;28;20049;-75
2023/08/22 04:15:15;;;;;;;0.20;0.20;;;;;;;16.09;65.76;99280.69;5043965;28;20538;-76
2023/08/22 04:17:42;;;;;;;0.30;0.30;;;;;;;16.28;65.51;99280.38;5045937;28;20147;-76
2023/08/22 04:20:10;;;;;;;0.30;0.30;;;;;;;16.45;64.37;99276.78;5042243;28;20523;-75
2023/08/22 04:22:36;;;;;;;0.20;0.20;;;;;;;16.84;63.45;99279.59;5028581;28;20045;-75
2023/08/22 04:25:04;;;;;;;0.20;0.20;;;;;;;17.12;62.34;99281.16;5035908;28;20049;-76
2023/08/22 04:27:30;;;;;;;0.30;0.30;;;;;;;17.39;61.35;99276.31;5025063;28;20056;-75
2023/08/22 04:29:59;;;;;;;0.30;0.30;;;;;;;17.58;60.69;99270.34;5043405;28;20121;-75
2023/08/22 04:32:26;;;;;;;0.20;0.20;;;;;;;17.73;60.30;99263.44;5044944;28;20152;-75
2023/08/22 04:34:54;;;;;;;0.20;0.20;;;;;;;17.72;59.51;99270.13;5044131;28;20053;-75
2023/08/22 04:37:21;;;;;;;0.30;0.30;;;;;;;17.66;59.91;99268.69;5027412;28;20059;-76
2023/08/22 04:39:47;;;;;;;;;;;;;;;17.63;59.82;99258.28;5044736;28;20053;-76
2023/08/22 04:42:39;;;;;;;0.20;0.20;;;;;;;17.56;59.58;99253.28;5060698;28;20086;-77
2023/08/22 04:45:09;;;;;;;0.20;0.20;;;;;;;17.64;59.65;99257.16;5026480;28;20424;-77
2023/08/22 04:47:36;;;;;;;0.30;0.30;;;;;;;17.72;59.65;99268.16;5043479;28;20563;-76
2023/08/22 04:50:02;;;;;;;0.28;0.28;;;;;;;17.86;59.35;99265.09;5024962;28;20401;-77
2023/08/22 04:52:30;;;;;;;0.30;0.30;;;;;;;17.96;59.40;99252.03;5024753;28;20069;-77
2023/08/22 04:54:57;;;;;;;0.30;0.30;;;;;;;17.93;59.44;99250.75;5027078;28;20148;-76
2023/08/22 04:57:24;;;;;;;0.30;0.30;;;;;;;18.06;59.18;99259.97;5041137;28;20055;-75
2023/08/22 04:59:52;;;;;;;0.20;0.20;;;;;;;18.19;58.58;99260.81;5046058;28;20107;-76
2023/08/22 05:02:24;;;;;;;0.30;0.30;;;;;;;18.31;58.12;99260.03;5047005;28;20311;-76
2023/08/22 05:04:52;;;;;;;0.30;0.30;;;;;;;18.50;57.09;99264.28;5015194;28;20042;-76
2023/08/22 05:07:18;;;;;;;0.30;0.30;;;;;;;18.56;56.97;99254.59;5020554;28;20140;-76
2023/08/22 05:09:45;;;;;;;0.20;0.20;;;;;;;18.73;56.00;99259.13;5022763;28;20056;-76
2023/08/22 05:12:11;;;;;;;0.28;0.28;;;;;;;18.63;55.65;99259.56;5027308;28;20304;-77
2023/08/22 05:14:39;;;;;;;0.20;0.20;;;;;;;18.61;55.83;99257.13;5039090;28;20056;-77
2023/08/22 05:17:08;;;;;;;0.30;0.30;;;;;;;18.78;55.85;99256.16;5034926;28;20053;-75
2023/08/22 05:19:39;;;;;;;0.30;0.30;;;;;;;18.92;55.02;99244.72;5028205;28;20118;-74
2023/08/22 05:22:09;;;;;;;0.30;0.30;;;;;;;19.09;54.65;99242.91;5038724;28;20052;-75
2023/08/22 05:24:37;;;;;;;0.30;0.30;;;;;;;19.36;54.74;99251.69;5028259;28;20073;-74
2023/08/22 05:27:04;;;;;;;0.40;0.40;;;;;;;19.60;53.65;99250.84;5025854;28;20045;-75
2023/08/22 05:29:30;;;;;;;0.30;0.30;;;;;;;19.88;52.89;99249.28;5025851;28;20076;-75
2023/08/22 05:31:57;;;;;;;0.30;0.30;;;;;;;20.08;52.33;99251.13;5023712;28;20054;-75
2023/08/22 05:34:23;;;;;;;0.30;0.30;;;;;;;20.10;51.74;99251.56;5008892;28;20046;-74
2023/08/22 05:36:51;;;;;;;0.30;0.30;;;;;;;20.30;51.38;99242.59;5024223;28;20067;-75
2023/08/22 05:39:17;;;;;;;0.30;0.30;;;;;;;20.52;50.80;99241.19;5020931;28;20584;-74
2023/08/22 05:41:44;;;;;;;0.30;0.30;;;;;;;20.51;50.77;99236.78;5023902;28;20169;-73
2023/08/22 05:44:12;;;;;;;0.30;0.30;;;;;;;20.47;50.99;99242.25;5006099;28;20096;-73
2023/08/22 05:46:38;;;;;;;0.30;0.30;;;;;;;20.51;50.16;99242.34;5022376;28;20045;-73
2023/08/22 05:49:06;;;;;;;0.30;0.30;;;;;;;20.29;50.99;99238.19;5016959;28;20045;-75
2023/08/22 05:51:33;;;;;;;0.30;0.30;;;;;;;20.23;51.39;99241.22;5029424;28;20097;-75
2023/08/22 05:54:01;;;;;;;0.35;0.35;;;;;;;20.27;51.32;99239.34;5040325;28;20061;-75
2023/08/22 05:56:28;;;;;;;0.30;0.30;;;;;;;20.09;51.49;99238.03;5014649;28;20141;-76
2023/08/22 05:58:57;;;;;;;0.20;0.20;;;;;;;19.98;52.08;99235.78;5024939;28;20102;-74
2023/08/22 06:01:23;;;;;;;0.20;0.20;;;;;;;19.76;52.23;99233.50;5042380;28;20096;-77
2023/08/22 06:03:49;;;;;;;0.20;0.20;;;;;;;19.62;53.06;99231.13;5024553;28;20041;-75
2023/08/22 06:06:16;;;;;;;0.30;0.30;;;;;;;19.48;53.07;99237.84;5017337;28;20057;-77
2023/08/22 06:08:44;;;;;;;;;;;;;;;19.34;53.77;99231.84;5027174;28;20072;-76
2023/08/22 06:11:12;;;;;;;0.20;0.20;;;;;;;19.32;53.71;99223.88;5013098;28;19932;-74
2023/08/22 06:13:38;;;;;;;0.20;0.20;;;;;;;19.33;54.06;99224.69;5008479;28;20134;-77
2023/08/22 06:16:05;;;;;;;0.30;0.30;;;;;;;19.39;54.08;99226.88;5025014;28;20651;-77
2023/08/22 06:18:34;;;;;;;0.20;0.20;;;;;;;19.41;53.97;99221.78;5041223;28;20148;-76
2023/08/22 06:21:01;;;;;;;0.30;0.30;;;;;;;19.33;53.75;99225.47;5037268;28;20401;-77
2023/08/22 06:23:27;;;;;;;0.30;0.30;;;;;;;19.37;53.85;99220.88;5036170;28;20211;-76
2023/08/22 06:25:57;;;;;;;0.20;0.20;;;;;;;19.47;53.57;99216.81;5000758;28;20456;-76
2023/08/22 06:28:27;;;;;;;0.30;0.30;;;;;;;19.53;53.47;99217.38;5044629;28;20319;-76
2023/08/22 06:30:54;;;;;;;0.20;0.20;;;;;;;19.62;53.60;99209.72;5030797;28;20037;-76
2023/08/22 06:33:21;;;;;;;0.30;0.30;;;;;;;19.68;52.65;99208.34;5033151;28;20073;-77
2023/08/22 06:35:48;;;;;;;0.28;0.28;;;;;;;19.54;53.18;99197.59;5024737;28;20091;-77
2023/08/22 06:38:18;;;;;;;0.30;0.30;;;;;;;19.59;53.28;99204.06;5037578;28;20555;-77
2023/08/22 06:40:44;;;;;;;0.30;0.30;;;;;;;19.65;52.91;99200.69;5038099;28;20045;-77
2023/08/22 06:43:15;;;;;;;0.30;0.30;;;;;;;19.70;52.95;99197.69;5038255;28;20061;-76
2023/08/22 06:45:47;;;;;;;0.30;0.30;;;;;;;19.81;52.67;99194.41;5039709;28;20054;-75
2023/08/22 06:48:16;;;;;;;0.30;0.30;;;;;;;19.96;52.64;99192.91;5043505;28;20049;-77
2023/08/22 06:50:43;;;;;;;;;;;;;;;20.14;51.85;99203.69;5036699;28;20053;-77
2023/08/22 06:53:09;;;;;;;0.30;0.30;;;;;;;20.28;51.52;99190.19;4691773;28;9999933;-77
2023/08/22 06:55:36;;;;;;;0.30;0.30;;;;;;;20.51;50.54;99198.75;5041349;28;20057;-77
2023/08/22 06:58:03;;;;;;;0.40;0.40;;;;;;;21.02;49.73;99191.69;5041039;28;20067;-77
2023/08/22 07:00:31;;;;;;;0.40;0.40;;;;;;;22.02;47.34;99190.69;5040721;28;20044;-76
2023/08/22 07:02:59;;;;;;;0.40;0.40;;;;;;;22.85;44.99;99183.81;5046462;28;20593;-76
2023/08/22 07:05:27;;;;;;;0.50;0.50;;;;;;;23.48;43.53;99184.38;5027981;28;20067;-75
2023/08/22 07:07:54;;;;;;;0.40;0.40;;;;;;;24.01;42.41;99184.63;5042948;28;20041;-74
2023/08/22 07:10:21;;;;;;;0.40;0.40;;;;;;;24.60;40.77;99179.28;5042606;28;20052;-78
2023/08/22 07:12:52;;;;;;;0.50;0.50;;;;;;;24.92;39.76;99175.16;5045165;28;20571;-78
2023/08/22 07:15:21;;;;;;;0.40;0.40;;;;;;;25.46;38.67;99172.72;5000367;28;20058;-76
2023/08/22 07:17:49;;;;;;;0.43;0.43;;;;;;;25.47;38.00;99168.72;4991417;28;20514;-77
2023/08/22 07:20:25;;;;;;;0.32;0.32;;;;;;;24.91;38.45;99171.59;5007411;28;20049;-77
2023/08/22 07:22:57;;;;;;;0.40;0.40;;;;;;;24.88;39.13;99163.16;4975775;28;20141;-78
2023/08/22 07:25:27;;;;;;;0.30;0.30;;;;;;;24.85;39.04;99161.16;4996799;28;20584;-77
2023/08/22 07:27:54;;;;;;;0.40;0.40;;;;;;;24.84;38.94;99153.97;4989201;28;20074;-74
2023/08/22 07:30:28;;;;;;;0.30;0.30;;;;;;;24.76;38.46;99155.91;4985816;28;20051;-73
2023/08/22 07:32:59;;;;;;;0.40;0.40;;;;;;;24.50;38.64;99154.84;4996734;28;20042;-77
2023/08/22 07:35:34;;;;;;;0.30;0.30;;;;;;;24.04;39.40;99153.19;4993683;28;20046;-77
2023/08/22 07:38:03;;;;;;;0.40;0.40;;;;;;;23.71;40.30;99155.59;4990996;28;20123;-78
2023/08/22 07:40:41;;;;;;;0.30;0.30;;;;;;;23.53;40.49;99148.97;5006028;28;20046;-79
2023/08/22 07:43:12;;;;;;;0.40;0.40;;;;;;;23.48;40.84;99153.69;4972997;28;20077;-76
2023/08/22 07:45:40;;;;;;;0.40;0.40;;;;;;;23.64;40.41;99149.91;4972006;28;20049;-75
2023/08/22 07:48:10;;;;;;;0.40;0.40;;;;;;;23.78;40.53;99154.88;4988441;28;20093;-75
2023/08/22 07:50:40;;;;;;;0.50;0.50;;;;;;;24.31;39.02;99155.84;4992900;28;20061;-76
2023/08/22 07:53:08;;;;;;;0.60;0.60;;;;;;;25.10;37.01;99150.13;4984784;28;20559;-75
2023/08/22 07:55:35;;;;;;;0.52;0.40;;;;;;;25.77;34.91;99144.50;4994262;28;20116;-80
2023/08/22 07:58:08;;;;;;;0.50;0.50;;;;;;;26.14;33.98;99140.59;4974784;28;20556;-79
2023/08/22 08:00:37;;;;;;;0.50;0.50;;;;;;;26.74;32.73;99138.25;5014751;28;20506;-78
2023/08/22 08:03:05;;;;;;;0.50;0.50;;;;;;;26.92;32.66;99143.09;4985603;28;20131;-75
2023/08/22 08:05:33;;;;;;;0.40;0.40;;;;;;;27.24;31.53;99135.78;4982140;28;20139;-75
2023/08/22 08:08:03;;;;;;;0.30;0.30;;;;;;;26.33;32.54;99138.66;4994587;28;20054;-76
2023/08/22 08:10:30;;;;;;;0.30;0.30;;;;;;;25.61;34.13;99137.25;4973779;28;20080;-76
2023/08/22 08:12:58;;;;;;;0.40;0.40;;;;;;;25.11;35.07;99137.75;4988635;28;20050;-76
2023/08/22 08:15:28;;;;;;;0.32;0.32;;;;;;;24.45;36.58;99138.44;4990698;28;20181;-76
2023/08/22 08:17:59;;;;;;;0.60;0.40;;;;;;;23.90;36.54;99132.28;4990207;28;20543;-76
2023/08/22 08:20:32;;;;;;;0.40;0.40;;;;;;;23.87;36.03;99144.19;4990418;28;20360;-75
2023/08/22 08:23:05;;;;;;;0.35;0.35;;;;;;;24.01;35.36;99142.75;4982163;28;20038;-79
2023/08/22 08:25:34;;;;;;;0.40;0.40;;;;;;;23.87;35.75;99135.03;4991466;28;20050;-80
2023/08/22 08:28:05;;;;;;;0.30;0.30;;;;;;;23.54;36.89;99136.63;5016049;28;20537;-76
2023/08/22 08:30:31;;;;;;;0.30;0.30;;;;;;;23.47;36.99;99134.56;4975623;28;20592;-76
2023/08/22 08:32:58;;;;;;;0.45;0.45;;;;;;;23.76;36.56;99134.91;4987896;28;20093;-76
2023/08/22 08:35:27;;;;;;;0.30;0.30;;;;;;;23.87;36.27;99135.81;4987062;28;20129;-76
2023/08/22 08:37:57;;;;;;;0.30;0.30;;;;;;;23.85;36.13;99132.63;4965344;28;20578;-76
2023/08/22 08:40:36;;;;;;;0.30;0.30;;;;;;;23.97;35.73;99130.75;4988090;28;20096;-77
2023/08/22 08:43:06;;;;;;;0.40;0.40;;;;;;;23.84;36.09;99119.84;4993441;28;20077;-76
2023/08/22 08:45:37;;;;;;;0.40;0.40;;;;;;;23.81;36.65;99128.19;5000590;28;20046;-79
2023/08/22 08:48:07;;;;;;;0.40;0.40;;;;;;;24.33;35.98;99125.53;4985359;28;20490;-80
2023/08/22 08:50:38;;;;;;;0.40;0.40;;;;;;;25.02;34.91;99129.72;4984933;28;20068;-77
2023/08/22 08:53:06;;;;;;;0.30;0.30;;;;;;;25.26;34.23;99116.25;4982555;28;20058;-81
2023/08/22 08:55:39;;;;;;;0.30;0.30;;;;;;;24.81;34.78;99123.97;4969101;28;20046;-79
2023/08/22 08:58:08;;;;;;;0.30;0.30;;;;;;;24.50;35.17;99127.69;4984150;28;20139;-80
2023/08/22 09:00:38;;;;;;;0.30;0.30;;;;;;;24.11;35.40;99127.31;4993531;28;20060;-77
2023/08/22 09:03:08;;;;;;;0.30;0.30;;;;;;;23.78;36.15;99124.97;5004251;28;20148;-80
2023/08/22 09:05:35;;;;;;;0.30;0.30;;;;;;;23.40;36.98;99128.88;4987666;28;20046;-77
2023/08/22 09:08:17;;;;;;;0.32;0.30;;;;;;;22.93;37.61;99127.03;4981423;28;20058;-77
2023/08/22 09:10:52;;;;;;;0.20;0.20;;;;;;;22.58;38.64;99128.09;4989919;28;20046;-76
2023/08/22 09:13:29;;;;;;;0.20;0.20;;;;;;;22.38;38.76;99125.31;4987039;28;20133;-75
2023/08/22 09:16:02;;;;;;;;;;;;;;;22.01;39.17;99136.16;4971376;28;20050;-76
2023/08/22 09:18:32;;;;;;;0.20;0.20;;;;;;;21.65;39.66;99145.44;5006248;28;19925;-76
2023/08/22 09:21:03;;;;;;;0.20;0.20;;;;;;;21.35;40.63;99139.63;5005425;28;20509;-76
2023/08/22 09:23:35;;;;;;;0.30;0.30;;;;;;;20.99;41.70;99138.78;4998161;28;20584;-76
2023/08/22 09:26:11;;;;;;;0.20;0.20;;;;;;;20.71;42.37;99136.94;4988141;28;20049;-76
2023/08/22 09:28:46;;;;;;;0.22;0.22;;;;;;;20.63;43.02;99128.41;4987702;28;20050;-76
2023/08/22 09:31:21;;;;;;;0.20;0.20;;;;;;;20.67;43.22;99145.19;5005839;28;20517;-80
2023/08/22 09:33:50;;;;;;;0.20;0.20;;;;;;;20.61;43.61;99136.31;5004068;28;20162;-79
2023/08/22 09:36:20;;;;;;;0.20;0.20;;;;;;;20.52;43.58;99141.22;4990321;28;20050;-80
2023/08/22 09:39:06;;;;;;;0.20;0.20;;;;;;;20.49;44.03;99148.31;4990579;28;20068;-78
2023/08/22 09:41:39;;;;;;;0.30;0.30;;;;;;;20.41;43.88;99138.19;4991425;28;20108;-77
2023/08/22 09:44:08;;;;;;;0.30;0.30;;;;;;;20.33;44.24;99137.19;4994247;28;20144;-76
2023/08/22 09:46:41;;;;;;;0.20;0.20;;;;;;;20.26;45.17;99143.34;4982713;28;20550;-80
2023/08/22 09:49:11;;;;;;;0.20;0.20;;;;;;;20.26;45.49;99150.91;4986029;28;20046;-78
2023/08/22 09:51:42;;;;;;;0.20;0.20;;;;;;;20.23;45.89;99144.09;4989018;28;20269;-79
2023/08/22 09:54:11;;;;;;;0.20;0.20;;;;;;;20.19;46.14;99145.97;4999720;28;20060;-80
2023/08/22 09:56:43;;;;;;;0.20;0.20;;;;;;;20.13;46.46;99144.59;5005312;28;20062;-79
2023/08/22 09:59:18;;;;;;;0.20;0.20;;;;;;;20.12;47.11;99148.53;4991759;28;20065;-74
2023/08/22 10:01:48;;;;;;;0.20;0.20;;;;;;;20.07;47.38;99132.16;4993244;28;20049;-76
2023/08/22 10:04:18;;;;;;;0.22;0.22;;;;;;;20.08;48.00;99137.34;5000208;28;20121;-76
2023/08/22 10:06:47;;;;;;;0.30;0.30;;;;;;;20.01;48.11;99133.59;4989747;28;20514;-76
2023/08/22 10:09:15;;;;;;;0.20;0.20;;;;;;;19.92;48.26;99131.75;5005263;28;20069;-76
2023/08/22 10:11:50;;;;;;;0.20;0.20;;;;;;;19.98;48.37;99152.56;5006530;28;20046;-76
2023/08/22 10:14:25;;;;;;;0.30;0.30;;;;;;;19.88;50.56;99141.09;4999670;28;20421;-76
2023/08/22 10:16:55;;;;;;;0.20;0.20;;;;;;;19.74;52.00;99156.19;4994669;28;20114;-80
2023/08/22 10:19:28;;;;;;;0.20;0.20;;;;;;;19.54;53.51;99144.16;4990207;28;20085;-80
2023/08/22 10:22:08;;;;;;;0.28;0.28;;;;;;;19.42;54.81;99148.56;5002716;28;20047;-78
2023/08/22 10:24:38;;;;;;;0.35;0.30;;;;;;;19.41;55.68;99144.19;4972017;28;20047;-76
2023/08/22 10:27:09;;;;;;;0.22;0.22;;;;;;;19.48;55.77;99149.13;4993056;28;20043;-79
2023/08/22 10:29:37;;;;;;;0.20;0.20;;;;;;;19.49;56.18;99147.97;4994744;28;20054;-79
2023/08/22 10:32:21;;;;;;;0.20;0.20;;;;;;;19.45;56.51;99160.91;4990464;28;20050;-77
2023/08/22 10:35:21;;;;;;;0.30;0.30;;;;;;;19.41;57.38;99157.22;4986353;28;20062;-80
2023/08/22 10:37:52;;;;;;;0.30;0.30;;;;;;;19.39;57.59;99160.34;4988569;28;20081;-80
2023/08/22 10:40:30;;;;;;;0.20;0.20;;;;;;;19.45;57.61;99157.31;4967512;28;20074;-77
2023/08/22 10:43:11;;;;;;;0.30;0.30;;;;;;;19.49;57.67;99172.91;5000303;28;20115;-76
2023/08/22 10:45:48;;;;;;;0.20;0.20;;;;;;;19.49;57.50;99169.31;4995878;28;20153;-76
2023/08/22 10:48:18;;;;;;;0.20;0.20;;;;;;;19.50;56.78;99155.13;4987509;28;20046;-75
2023/08/22 10:50:47;;;;;;;0.30;0.30;;;;;;;19.35;57.05;99169.72;4988918;28;20058;-76
2023/08/22 10:53:25;;;;;;;0.30;0.30;;;;;;;19.28;57.34;99170.31;5003571;28;20065;-76
2023/08/22 10:55:57;;;;;;;0.30;0.30;;;;;;;19.31;57.17;99166.03;4987408;28;20042;-76
2023/08/22 10:58:39;;;;;;;0.20;0.20;;;;;;;19.46;56.63;99170.84;4970514;28;20531;-81
2023/08/22 11:01:10;;;;;;;0.28;0.28;;;;;;;19.31;57.39;99179.88;4980240;28;20056;-80
2023/08/22 11:03:42;;;;;;;0.30;0.30;;;;;;;19.30;57.25;99179.06;4982256;28;20050;-80
2023/08/22 11:06:17;;;;;;;0.30;0.30;;;;;;;19.20;56.89;99180.34;4989247;28;20557;-80
2023/08/22 11:08:47;;;;;;;0.20;0.20;;;;;;;19.10;57.18;99176.09;4963226;28;20140;-80
2023/08/22 11:11:15;;;;;;;0.30;0.30;;;;;;;19.11;57.15;99182.44;4997327;28;20429;-79
2023/08/22 11:13:46;;;;;;;0.30;0.30;;;;;;;19.17;56.92;99180.25;4990947;28;20517;-80
2023/08/22 11:16:14;;;;;;;0.20;0.20;;;;;;;19.23;56.79;99181.63;4645714;28;10000512;-80
2023/08/22 11:18:42;;;;;;;0.30;0.30;;;;;;;19.24;55.04;99178.50;4990735;28;20433;-81
2023/08/22 11:21:10;;;;;;;0.30;0.30;;;;;;;19.41;54.63;99177.44;4989143;28;20516;-79
2023/08/22 11:23:42;;;;;;;0.30;0.30;;;;;;;19.59;54.44;99182.69;4988759;28;20041;-79
2023/08/22 11:26:12;;;;;;;0.30;0.30;;;;;;;19.70;53.82;99174.69;4988799;28;20046;-79
2023/08/22 11:28:42;;;;;;;0.30;0.30;;;;;;;19.86;52.45;99176.72;4979038;28;20160;-80
2023/08/22 11:31:18;;;;;;;0.30;0.30;;;;;;;19.95;51.61;99175.44;4991676;28;20056;-79
2023/08/22 11:33:47;;;;;;;0.30;0.30;;;;;;;20.15;50.91;99174.78;4998804;28;20073;-80
2023/08/22 11:36:15;;;;;;;0.30;0.30;;;;;;;20.35;49.79;99162.63;4971963;28;20466;-79
2023/08/22 11:38:43;;;;;;;0.30;0.30;;;;;;;20.38;50.11;99178.59;4996765;28;20045;-79
2023/08/22 11:41:12;;;;;;;0.30;0.30;;;;;;;20.40;49.51;99175.44;4993741;28;20200;-78
2023/08/22 11:43:52;;;;;;;0.30;0.30;;;;;;;20.38;49.96;99178.59;4964074;28;20059;-80